Time;durP1;ratioP1;P1;durP2;ratioP2;P2;SDS_P1;SDS_P2;PMS_P1;PMS_P2;Temp;Humidity;BMP_temperature;BMP_pressure;BME280_temperature;BME280_humidity;BME280_pressure;Samples;Min_cycle;Max_cycle;Signal;HPM_P1;HPM_P2
2022/05/09 00:01:40;;;;;;;15.25;4.35;;;10.60;99.90;;;;;;4998114;28;20096;-87
2022/05/09 00:04:06;;;;;;;14.90;4.40;;;10.60;99.90;;;;;;4990025;28;20117;-88
2022/05/09 00:06:32;;;;;;;13.85;4.60;;;10.50;99.90;;;;;;4996050;28;20064;-89
2022/05/09 00:08:58;;;;;;;11.82;4.07;;;10.50;99.90;;;;;;4995864;28;20029;-88
2022/05/09 00:11:24;;;;;;;13.25;4.60;;;10.50;99.90;;;;;;4995077;28;20022;-89
2022/05/09 00:13:49;;;;;;;12.40;4.15;;;10.40;99.90;;;;;;4995597;28;20388;-89
2022/05/09 00:16:15;;;;;;;14.25;5.28;;;10.40;99.90;;;;;;4994488;28;20116;-90
2022/05/09 00:18:41;;;;;;;13.02;3.90;;;10.40;99.90;;;;;;4993607;28;20022;-91
2022/05/09 00:21:07;;;;;;;14.98;3.70;;;10.40;99.90;;;;;;4994351;28;20049;-90
2022/05/09 00:23:33;;;;;;;12.48;4.03;;;10.40;99.90;;;;;;4994281;28;20487;-90
2022/05/09 00:26:00;;;;;;;16.83;4.47;;;10.40;99.90;;;;;;4994448;28;20026;-89
2022/05/09 00:28:26;;;;;;;12.93;4.38;;;10.50;99.90;;;;;;4994485;28;20026;-89
2022/05/09 00:30:54;;;;;;;13.05;5.00;;;10.50;99.90;;;;;;4997731;28;20385;-88
2022/05/09 00:33:20;;;;;;;13.25;4.13;;;10.40;99.90;;;;;;4994882;28;21460;-89
2022/05/09 00:35:46;;;;;;;14.68;4.18;;;10.50;99.90;;;;;;4995294;28;20364;-89
2022/05/09 00:38:12;;;;;;;14.57;4.82;;;10.50;99.90;;;;;;4994496;28;20054;-88
2022/05/09 00:40:39;;;;;;;15.15;4.93;;;10.40;99.90;;;;;;5000527;28;20095;-89
2022/05/09 00:43:33;;;;;;;9.98;4.32;;;10.40;99.90;;;;;;4987888;28;20030;-90
2022/05/09 00:45:58;;;;;;;12.27;4.35;;;10.30;99.90;;;;;;4993719;28;20030;-90
2022/05/09 00:48:24;;;;;;;13.40;5.05;;;10.20;99.90;;;;;;4993592;28;20041;-90
2022/05/09 00:50:50;;;;;;;11.43;4.63;;;10.10;99.90;;;;;;4993515;28;20038;-90
2022/05/09 00:53:15;;;;;;;12.90;5.35;;;10.00;99.90;;;;;;4993705;28;20022;-89
2022/05/09 00:55:48;;;;;;;9.50;5.15;;;9.90;99.90;;;;;;4979458;28;20060;-90
2022/05/09 00:58:33;;;;;;;18.48;5.80;;;9.90;99.90;;;;;;4977117;28;20018;-90
2022/05/09 01:01:01;;;;;;;13.05;4.93;;;9.80;99.90;;;;;;4976791;28;20030;-90
2022/05/09 01:03:36;;;;;;;20.92;5.65;;;9.70;99.90;;;;;;4976794;28;20037;-89
2022/05/09 01:06:03;;;;;;;13.82;4.75;;;9.70;99.90;;;;;;4994261;28;20057;-90
2022/05/09 01:08:32;;;;;;;12.52;5.65;;;9.60;99.90;;;;;;4976671;28;20506;-90
2022/05/09 01:10:58;;;;;;;11.13;5.03;;;9.60;99.90;;;;;;4976733;28;20030;-90
2022/05/09 01:13:29;;;;;;;18.00;5.78;;;9.60;99.90;;;;;;4976656;28;20488;-90
2022/05/09 01:15:56;;;;;;;12.68;5.07;;;9.50;99.90;;;;;;4993574;28;20097;-89
2022/05/09 01:18:22;;;;;;;13.07;4.68;;;9.50;99.90;;;;;;4993866;28;20032;-89
2022/05/09 01:20:47;;;;;;;15.85;5.70;;;9.50;99.90;;;;;;4976457;28;20042;-89
2022/05/09 01:23:13;;;;;;;14.18;5.60;;;9.50;99.90;;;;;;4976321;28;20022;-90
2022/05/09 01:25:40;;;;;;;14.35;4.60;;;9.50;99.90;;;;;;4976561;28;20062;-89
2022/05/09 01:28:06;;;;;;;15.77;5.68;;;9.40;99.90;;;;;;4975538;28;20476;-90
2022/05/09 01:30:37;;;;;;;14.45;5.15;;;9.50;99.90;;;;;;4976058;28;20052;-88
2022/05/09 01:33:14;;;;;;;12.65;5.78;;;9.50;99.90;;;;;;4977995;28;20153;-89
2022/05/09 01:35:54;;;;;;;16.30;6.45;;;9.40;99.90;;;;;;4978141;28;20142;-90
2022/05/09 01:38:32;;;;;;;17.92;6.18;;;9.40;99.90;;;;;;4977227;28;20128;-89
2022/05/09 01:40:57;;;;;;;14.07;6.38;;;9.40;99.90;;;;;;4994818;28;20048;-90
2022/05/09 01:43:37;;;;;;;9.52;5.93;;;9.30;99.90;;;;;;4978058;28;20407;-89
2022/05/09 01:46:11;;;;;;;16.87;5.63;;;9.30;99.90;;;;;;4977964;28;20022;-90
2022/05/09 01:51:22;;;;;;;15.20;5.30;;;9.30;99.90;;;;;;4999521;28;20041;-89
2022/05/09 01:53:52;;;;;;;14.48;5.22;;;9.20;99.90;;;;;;4984544;28;20022;-89
2022/05/09 01:56:26;;;;;;;21.52;8.18;;;9.20;99.90;;;;;;4981291;28;20037;-89
2022/05/09 01:58:52;;;;;;;15.40;6.13;;;9.20;99.90;;;;;;4977084;28;20030;-90
2022/05/09 02:01:19;;;;;;;16.73;6.03;;;9.20;99.90;;;;;;4994165;28;20030;-90
2022/05/09 02:03:46;;;;;;;13.02;5.40;;;9.20;99.90;;;;;;4993856;28;20061;-90
2022/05/09 02:06:14;;;;;;;14.45;5.85;;;9.20;99.90;;;;;;4993707;28;20527;-89
2022/05/09 02:08:40;;;;;;;14.60;5.57;;;9.10;99.90;;;;;;4976396;28;20026;-89
2022/05/09 02:11:06;;;;;;;15.05;6.10;;;9.00;99.90;;;;;;4993734;28;20054;-89
2022/05/09 02:13:34;;;;;;;15.63;6.35;;;9.00;99.90;;;;;;4993818;28;20034;-89
2022/05/09 02:16:01;;;;;;;11.73;5.60;;;8.90;99.90;;;;;;4976647;28;20154;-89
2022/05/09 02:18:27;;;;;;;15.68;5.35;;;8.90;99.90;;;;;;4994045;28;20044;-89
2022/05/09 02:20:52;;;;;;;10.93;5.60;;;8.90;99.90;;;;;;4976030;28;20129;-89
2022/05/09 02:23:19;;;;;;;15.65;5.70;;;8.80;99.90;;;;;;4976514;28;20030;-90
2022/05/09 02:25:45;;;;;;;11.80;5.65;;;8.80;99.90;;;;;;4976702;28;20081;-89
2022/05/09 02:28:13;;;;;;;14.82;5.85;;;8.80;99.90;;;;;;4977941;28;20050;-90
2022/05/09 02:30:39;;;;;;;13.77;5.15;;;8.80;99.90;;;;;;4979356;28;20025;-90
2022/05/09 02:33:07;;;;;;;15.27;5.60;;;8.80;99.90;;;;;;4976388;28;20026;-89
2022/05/09 02:35:37;;;;;;;17.85;5.75;;;8.80;99.90;;;;;;4976343;28;20034;-90
2022/05/09 02:38:04;;;;;;;12.88;5.40;;;8.90;99.90;;;;;;4976521;28;20034;-90
2022/05/09 02:40:30;;;;;;;16.02;5.63;;;8.90;99.90;;;;;;4977275;28;20045;-91
2022/05/09 02:42:57;;;;;;;17.85;5.97;;;8.90;99.90;;;;;;4997246;28;20069;-89
2022/05/09 02:45:23;;;;;;;16.52;5.72;;;8.90;99.90;;;;;;4997413;28;20022;-90
2022/05/09 02:47:50;;;;;;;14.10;6.53;;;8.90;99.90;;;;;;4980159;28;20030;-90
2022/05/09 02:50:21;;;;;;;14.57;6.05;;;8.80;99.90;;;;;;4979667;28;20065;-89
2022/05/09 02:52:47;;;;;;;19.58;6.35;;;8.90;99.90;;;;;;4979886;28;20376;-90
2022/05/09 02:55:13;;;;;;;19.58;5.97;;;8.80;99.90;;;;;;4997412;28;20035;-90
2022/05/09 02:57:39;;;;;;;12.30;5.63;;;8.80;99.90;;;;;;4997224;28;20096;-91
2022/05/09 03:00:09;;;;;;;14.10;5.75;;;8.80;99.90;;;;;;4979775;28;20503;-90
2022/05/09 03:02:34;;;;;;;13.40;5.35;;;8.80;99.90;;;;;;4997092;28;20484;-90
2022/05/09 03:05:01;;;;;;;19.77;6.25;;;8.80;99.90;;;;;;4979869;28;20030;-90
2022/05/09 03:07:27;;;;;;;13.18;5.85;;;8.80;99.90;;;;;;4979656;28;20491;-89
2022/05/09 03:09:52;;;;;;;11.23;5.18;;;8.80;99.90;;;;;;4983432;28;20035;-89
2022/05/09 03:12:19;;;;;;;17.40;5.97;;;8.80;99.90;;;;;;4981011;28;20094;-90
2022/05/09 03:14:46;;;;;;;10.45;5.15;;;8.80;99.90;;;;;;4983382;28;20085;-90
2022/05/09 03:17:13;;;;;;;11.73;4.93;;;8.90;99.90;;;;;;4983940;28;20026;-90
2022/05/09 03:19:39;;;;;;;13.43;5.53;;;8.80;99.90;;;;;;5003121;28;20026;-91
2022/05/09 03:22:05;;;;;;;17.67;6.07;;;8.90;99.90;;;;;;5002171;28;20030;-89
2022/05/09 03:24:30;;;;;;;23.00;6.63;;;8.80;99.90;;;;;;5002692;28;20041;-89
2022/05/09 03:26:57;;;;;;;15.15;5.53;;;8.80;99.90;;;;;;4992854;28;20038;-90
2022/05/09 03:29:24;;;;;;;15.77;5.65;;;8.90;99.90;;;;;;4984802;28;20121;-89
2022/05/09 03:31:52;;;;;;;16.45;5.85;;;8.80;99.90;;;;;;4983110;28;20034;-90
2022/05/09 03:34:18;;;;;;;9.48;5.53;;;8.80;99.90;;;;;;4982397;28;20046;-89
2022/05/09 03:36:44;;;;;;;15.95;5.63;;;8.70;99.90;;;;;;4981525;28;20034;-90
2022/05/09 03:39:10;;;;;;;13.63;5.00;;;8.70;99.90;;;;;;4980676;28;20369;-90
2022/05/09 03:41:36;;;;;;;12.10;5.80;;;8.60;99.90;;;;;;4981692;28;20038;-90
2022/05/09 03:44:03;;;;;;;14.88;5.80;;;8.50;99.90;;;;;;4980851;28;20030;-90
2022/05/09 03:46:29;;;;;;;13.45;5.60;;;8.50;99.90;;;;;;4989069;28;20034;-90
2022/05/09 03:48:55;;;;;;;16.30;5.22;;;8.50;99.90;;;;;;4986903;28;20452;-90
2022/05/09 03:51:20;;;;;;;13.57;5.65;;;8.50;99.90;;;;;;4981059;28;20030;-89
2022/05/09 03:53:46;;;;;;;14.65;5.05;;;8.50;99.90;;;;;;4980661;28;20057;-90
2022/05/09 03:56:12;;;;;;;15.07;5.72;;;8.50;99.90;;;;;;4980492;28;20053;-89
2022/05/09 03:58:39;;;;;;;15.38;5.93;;;8.50;99.90;;;;;;4979957;28;20024;-89
2022/05/09 04:01:07;;;;;;;18.67;6.00;;;8.60;99.90;;;;;;4996978;28;20030;-89
2022/05/09 04:03:33;;;;;;;13.85;5.50;;;8.50;99.90;;;;;;4996274;28;20031;-89
2022/05/09 04:05:59;;;;;;;14.15;5.18;;;8.50;99.90;;;;;;4996314;28;20049;-88
2022/05/09 04:08:25;;;;;;;11.68;5.75;;;8.40;99.90;;;;;;4995912;28;20058;-88
2022/05/09 04:10:52;;;;;;;9.27;5.43;;;8.30;99.90;;;;;;4995699;28;20038;-89
2022/05/09 04:13:18;;;;;;;9.93;5.32;;;8.20;99.90;;;;;;4995210;28;20109;-88
2022/05/09 04:18:36;;;;;;;12.02;5.03;;;8.10;99.90;;;;;;4996187;28;20041;-89
2022/05/09 04:21:02;;;;;;;16.90;6.65;;;8.00;99.90;;;;;;4994969;28;20044;-89
2022/05/09 04:23:28;;;;;;;9.82;5.35;;;8.00;99.90;;;;;;4994627;28;20022;-87
2022/05/09 04:25:53;;;;;;;12.63;5.47;;;8.00;99.90;;;;;;4995092;28;20038;-89
2022/05/09 04:28:22;;;;;;;9.80;5.07;;;7.90;99.90;;;;;;4998102;28;20026;-89
2022/05/09 04:30:48;;;;;;;12.70;5.72;;;7.90;99.90;;;;;;4996233;28;20094;-89
2022/05/09 04:33:14;;;;;;;9.35;5.10;;;7.90;99.90;;;;;;4996437;28;20100;-88
2022/05/09 04:35:42;;;;;;;14.38;5.50;;;7.90;99.90;;;;;;4998038;28;20037;-89
2022/05/09 04:38:21;;;;;;;10.60;5.55;;;7.90;99.90;;;;;;4997516;28;20072;-88
2022/05/09 04:40:51;;;;;;;12.35;5.53;;;8.00;99.90;;;;;;4997342;28;20044;-87
2022/05/09 04:43:18;;;;;;;19.38;6.13;;;8.00;99.90;;;;;;4997378;28;20052;-90
2022/05/09 04:45:44;;;;;;;20.17;6.63;;;8.00;99.90;;;;;;4997364;28;20097;-88
2022/05/09 04:48:10;;;;;;;16.40;5.53;;;8.00;99.90;;;;;;4997615;28;20034;-89
2022/05/09 04:50:35;;;;;;;13.55;4.88;;;8.00;99.90;;;;;;5014500;28;20095;-89
2022/05/09 04:53:04;;;;;;;13.00;5.25;;;8.00;99.90;;;;;;4997049;28;20026;-88
2022/05/09 04:55:29;;;;;;;14.15;5.35;;;8.10;99.90;;;;;;4997710;28;20083;-89
2022/05/09 04:57:56;;;;;;;13.73;6.32;;;8.10;99.90;;;;;;4997529;28;20108;-90
2022/05/09 05:00:27;;;;;;;18.13;6.00;;;8.10;99.90;;;;;;4997243;28;20112;-88
2022/05/09 05:02:54;;;;;;;12.77;6.00;;;8.10;99.90;;;;;;4997150;28;20030;-92
2022/05/09 05:05:20;;;;;;;11.80;5.57;;;8.10;99.90;;;;;;4997533;28;20172;-89
2022/05/09 05:07:48;;;;;;;10.55;5.50;;;8.10;99.90;;;;;;4997695;28;20254;-91
2022/05/09 05:10:14;;;;;;;12.60;5.63;;;8.10;99.90;;;;;;4997654;28;20029;-90
2022/05/09 05:12:41;;;;;;;14.90;5.60;;;8.10;99.90;;;;;;4998185;28;20018;-90
2022/05/09 05:15:08;;;;;;;17.05;5.55;;;8.10;99.90;;;;;;4998450;28;20514;-90
2022/05/09 05:17:34;;;;;;;10.35;5.57;;;8.10;99.90;;;;;;5000125;28;20026;-90
2022/05/09 05:20:00;;;;;;;11.60;6.35;;;8.00;99.90;;;;;;4998819;28;20068;-90
2022/05/09 05:22:27;;;;;;;11.73;5.60;;;8.00;99.90;;;;;;4998645;28;20109;-91
2022/05/09 05:24:55;;;;;;;9.68;5.20;;;8.00;99.90;;;;;;4999099;28;20026;-90
2022/05/09 05:27:21;;;;;;;14.07;5.68;;;8.00;99.90;;;;;;4997110;28;20384;-90
2022/05/09 05:29:49;;;;;;;10.18;5.05;;;8.00;99.90;;;;;;4996871;28;20026;-90
2022/05/09 05:32:25;;;;;;;9.38;4.65;;;8.00;99.90;;;;;;4997054;28;20396;-92
2022/05/09 05:34:52;;;;;;;9.35;5.15;;;8.00;99.90;;;;;;4974280;28;20058;-90
2022/05/09 05:37:19;;;;;;;12.73;6.15;;;8.00;99.90;;;;;;4978907;28;20042;-90
2022/05/09 05:39:46;;;;;;;14.82;5.45;;;8.00;99.90;;;;;;4985182;28;20038;-91
2022/05/09 05:42:14;;;;;;;10.20;6.85;;;8.10;99.90;;;;;;4975688;28;20034;-92
2022/05/09 05:44:40;;;;;;;15.98;5.18;;;8.10;99.90;;;;;;4974636;28;20469;-91
2022/05/09 05:47:12;;;;;;;9.05;5.03;;;8.10;99.90;;;;;;4978831;28;20042;-91
2022/05/09 05:49:39;;;;;;;10.82;5.10;;;8.10;99.90;;;;;;4982544;28;20137;-90
2022/05/09 05:52:06;;;;;;;9.43;5.80;;;8.20;99.90;;;;;;4973746;28;20027;-90
2022/05/09 05:54:34;;;;;;;12.70;5.22;;;8.30;99.90;;;;;;4974956;28;20026;-91
2022/05/09 05:57:01;;;;;;;8.50;5.00;;;8.30;99.90;;;;;;4974427;28;20038;-90
2022/05/09 05:59:28;;;;;;;10.45;4.82;;;8.40;99.90;;;;;;4974948;28;20035;-89
2022/05/09 06:01:54;;;;;;;11.63;5.28;;;8.50;99.90;;;;;;4974307;28;20038;-90
2022/05/09 06:04:20;;;;;;;13.65;5.70;;;8.60;99.90;;;;;;4973688;28;20023;-87
2022/05/09 06:06:47;;;;;;;12.68;5.72;;;8.70;99.90;;;;;;4964394;28;20034;-88
2022/05/09 06:09:13;;;;;;;16.38;6.15;;;8.80;99.90;;;;;;4962905;28;20030;-87
2022/05/09 06:11:42;;;;;;;11.63;5.78;;;8.80;99.90;;;;;;4966961;28;20022;-87
2022/05/09 06:14:12;;;;;;;16.27;6.07;;;8.80;99.90;;;;;;4974023;28;20033;-87
2022/05/09 06:16:38;;;;;;;15.57;6.53;;;9.00;99.90;;;;;;4977518;28;20034;-88
2022/05/09 06:19:04;;;;;;;12.25;5.63;;;9.00;99.90;;;;;;4978728;28;20032;-87
2022/05/09 06:21:33;;;;;;;14.55;6.18;;;9.00;99.90;;;;;;4978305;28;20502;-88
2022/05/09 06:24:00;;;;;;;11.88;5.75;;;9.10;99.90;;;;;;4978737;28;20070;-87
2022/05/09 06:26:27;;;;;;;13.68;6.15;;;9.20;99.90;;;;;;4978880;28;20030;-88
2022/05/09 06:28:53;;;;;;;17.17;7.00;;;9.30;99.90;;;;;;4979156;28;20027;-87
2022/05/09 06:31:19;;;;;;;12.57;6.30;;;9.30;99.90;;;;;;4978997;28;20544;-86
2022/05/09 06:33:45;;;;;;;9.63;5.53;;;9.40;99.90;;;;;;4981730;28;20043;-87
2022/05/09 06:36:10;;;;;;;12.48;6.43;;;9.50;99.90;;;;;;4996198;28;20026;-87
2022/05/09 06:38:36;;;;;;;13.20;5.82;;;9.50;99.90;;;;;;4994980;28;20041;-88
2022/05/09 06:41:02;;;;;;;11.82;6.20;;;9.60;99.90;;;;;;4994930;28;20058;-87
2022/05/09 06:43:30;;;;;;;17.33;7.18;;;9.70;99.90;;;;;;4994767;28;20033;-87
2022/05/09 06:45:57;;;;;;;14.20;6.78;;;9.70;99.90;;;;;;4995042;28;20038;-87
2022/05/09 06:48:23;;;;;;;13.00;6.43;;;9.80;99.90;;;;;;4995498;28;20046;-87
2022/05/09 06:50:49;;;;;;;14.60;6.97;;;9.80;99.90;;;;;;4996443;28;20534;-88
2022/05/09 06:53:14;;;;;;;12.68;6.30;;;9.90;99.90;;;;;;4995306;28;20034;-87
2022/05/09 06:55:40;;;;;;;18.08;7.53;;;10.00;99.90;;;;;;4995452;28;20391;-87
2022/05/09 06:58:08;;;;;;;13.88;6.00;;;10.00;99.90;;;;;;4995454;28;20037;-86
2022/05/09 07:00:35;;;;;;;16.60;6.28;;;10.10;99.90;;;;;;4995338;28;20026;-87
2022/05/09 07:03:01;;;;;;;13.25;6.30;;;10.20;99.90;;;;;;4995043;28;20053;-87
2022/05/09 07:05:27;;;;;;;21.55;7.63;;;10.30;99.90;;;;;;4996397;28;20034;-87
2022/05/09 07:07:53;;;;;;;12.95;6.28;;;10.40;99.90;;;;;;4994876;28;20384;-88
2022/05/09 07:10:20;;;;;;;14.00;5.97;;;10.50;99.90;;;;;;4994845;28;20033;-87
2022/05/09 07:12:51;;;;;;;14.18;6.45;;;10.60;99.90;;;;;;4996034;28;20420;-88
2022/05/09 07:15:19;;;;;;;17.73;6.97;;;10.70;99.90;;;;;;4995386;28;20061;-88
2022/05/09 07:17:45;;;;;;;13.32;6.32;;;10.80;99.90;;;;;;4994591;28;20034;-88
2022/05/09 07:20:12;;;;;;;14.45;6.18;;;11.00;99.90;;;;;;4995379;28;20048;-87
2022/05/09 07:22:38;;;;;;;17.90;5.82;;;11.10;99.90;;;;;;4995396;28;20058;-87
2022/05/09 07:25:05;;;;;;;20.77;6.55;;;11.30;99.90;;;;;;4995705;28;20059;-87
2022/05/09 07:27:31;;;;;;;14.25;4.80;;;11.40;99.90;;;;;;4995793;28;20033;-86
2022/05/09 07:29:57;;;;;;;12.07;4.82;;;11.60;99.90;;;;;;5001366;28;20069;-87
2022/05/09 07:32:23;;;;;;;15.07;4.88;;;11.70;99.90;;;;;;4998223;28;20521;-87
2022/05/09 07:34:51;;;;;;;15.55;4.72;;;11.80;99.90;;;;;;5015945;28;20057;-87
2022/05/09 07:37:17;;;;;;;10.18;4.22;;;12.00;99.90;;;;;;4987838;28;20026;-87
2022/05/09 07:39:43;;;;;;;12.98;4.85;;;12.10;99.90;;;;;;4983410;28;20065;-87
2022/05/09 07:42:11;;;;;;;13.48;3.97;;;12.30;99.90;;;;;;4984971;28;20045;-88
2022/05/09 07:44:37;;;;;;;12.43;4.63;;;12.40;99.90;;;;;;4993899;28;20046;-87
2022/05/09 07:47:02;;;;;;;8.73;4.43;;;12.50;99.90;;;;;;5016425;28;20022;-87
2022/05/09 07:49:28;;;;;;;14.63;4.72;;;12.60;99.90;;;;;;5018852;28;20129;-87
2022/05/09 07:51:54;;;;;;;9.02;3.88;;;12.70;99.90;;;;;;5015932;28;20080;-87
2022/05/09 07:54:19;;;;;;;11.00;3.45;;;12.80;99.90;;;;;;5007703;28;20030;-87
2022/05/09 07:56:46;;;;;;;10.38;3.67;;;12.90;99.90;;;;;;5026733;28;20056;-87
2022/05/09 07:59:12;;;;;;;7.30;3.30;;;13.00;99.90;;;;;;5002243;28;20032;-87
2022/05/09 08:01:38;;;;;;;9.80;3.15;;;13.10;99.90;;;;;;5000910;28;20033;-88
2022/05/09 08:04:04;;;;;;;7.43;3.35;;;13.30;99.90;;;;;;4999929;28;20496;-87
2022/05/09 08:06:30;;;;;;;8.35;2.97;;;13.40;99.90;;;;;;4999400;28;20060;-88
2022/05/09 08:08:55;;;;;;;11.40;3.78;;;13.50;99.90;;;;;;4984660;28;20500;-88
2022/05/09 08:11:23;;;;;;;9.60;3.67;;;13.70;99.90;;;;;;4987051;28;20022;-87
2022/05/09 08:13:49;;;;;;;9.68;3.40;;;13.70;99.90;;;;;;4988816;28;20064;-87
2022/05/09 08:16:15;;;;;;;6.97;3.00;;;13.80;99.90;;;;;;4983332;28;20026;-88
2022/05/09 08:18:41;;;;;;;7.00;3.00;;;13.90;99.90;;;;;;4978995;28;20040;-88
2022/05/09 08:21:09;;;;;;;11.02;3.10;;;14.00;99.90;;;;;;4985712;28;20128;-89
2022/05/09 08:23:35;;;;;;;16.60;2.83;;;14.10;99.90;;;;;;4989447;28;20209;-88
2022/05/09 08:26:03;;;;;;;9.32;2.70;;;14.20;99.90;;;;;;4988271;28;20050;-88
2022/05/09 08:28:29;;;;;;;7.50;2.75;;;14.20;99.90;;;;;;4988946;28;20026;-89
2022/05/09 08:30:55;;;;;;;6.00;2.47;;;14.30;99.90;;;;;;4988231;28;20072;-90
2022/05/09 08:33:28;;;;;;;9.82;2.33;;;14.30;98.90;;;;;;4989078;28;20054;-90
2022/05/09 08:35:55;;;;;;;5.63;2.10;;;14.30;96.50;;;;;;4984754;28;20514;-89
2022/05/09 08:38:22;;;;;;;6.47;2.35;;;14.30;96.30;;;;;;4983574;28;20070;-88
2022/05/09 08:41:14;;;;;;;8.73;2.33;;;14.20;96.10;;;;;;4991088;28;20025;-90
2022/05/09 08:43:40;;;;;;;7.05;2.08;;;14.30;95.80;;;;;;4985141;28;20033;-87
2022/05/09 08:46:28;;;;;;;4.22;1.70;;;14.40;95.30;;;;;;4988331;28;20029;-86
2022/05/09 08:49:25;;;;;;;4.15;1.98;;;14.40;93.70;;;;;;4987992;28;20041;-88
2022/05/09 08:52:27;;;;;;;5.20;2.33;;;14.40;92.40;;;;;;4985201;28;20030;-88
2022/05/09 08:54:55;;;;;;;4.53;1.80;;;14.30;91.80;;;;;;4979133;28;20168;-88
2022/05/09 08:57:36;;;;;;;6.97;2.28;;;14.40;89.20;;;;;;4987734;28;20479;-88
2022/05/09 09:00:15;;;;;;;7.05;2.10;;;14.40;89.00;;;;;;4987846;28;20396;-87
2022/05/09 09:02:59;;;;;;;3.17;1.63;;;14.50;89.70;;;;;;4987617;28;20037;-88
2022/05/09 09:05:28;;;;;;;7.15;2.03;;;14.70;89.50;;;;;;4987178;28;20483;-88
2022/05/09 09:08:39;;;;;;;4.95;1.67;;;14.80;88.80;;;;;;4988116;28;20498;-89
2022/05/09 09:11:23;;;;;;;8.75;2.15;;;14.90;88.10;;;;;;4961318;28;20060;-89
2022/05/09 09:14:17;;;;;;;2.78;1.65;;;15.00;87.30;;;;;;4985743;28;20125;-89
2022/05/09 09:16:55;;;;;;;4.97;2.25;;;15.10;87.00;;;;;;4987518;28;20403;-88
2022/05/09 09:19:20;;;;;;;3.83;1.98;;;15.20;84.50;;;;;;4990667;28;20120;-88
2022/05/09 09:21:57;;;;;;;4.50;1.63;;;15.30;84.60;;;;;;4998840;28;20049;-88
2022/05/09 09:24:40;;;;;;;4.18;1.85;;;15.50;84.60;;;;;;4988401;28;20064;-88
2022/05/09 09:27:14;;;;;;;6.57;2.05;;;15.70;83.80;;;;;;4986102;28;20060;-88
2022/05/09 09:29:51;;;;;;;8.88;1.85;;;15.80;81.80;;;;;;4987020;28;20036;-87
2022/05/09 09:32:21;;;;;;;6.43;1.95;;;16.00;81.60;;;;;;4984480;28;20040;-87
2022/05/09 09:35:24;;;;;;;4.27;2.07;;;16.30;81.60;;;;;;5000423;28;20043;-89
2022/05/09 09:38:05;;;;;;;3.40;1.80;;;16.50;81.80;;;;;;4952854;28;20076;-87
2022/05/09 09:40:31;;;;;;;;;;;16.80;80.10;;;;;;4989397;28;20547;-88
2022/05/09 09:42:57;;;;;;;4.18;1.60;;;16.90;79.80;;;;;;4989970;28;20013;-88
2022/05/09 09:45:35;;;;;;;4.68;1.67;;;17.10;78.50;;;;;;4984800;28;20379;-87
2022/05/09 09:48:07;;;;;;;7.20;2.45;;;17.00;76.90;;;;;;4991364;28;20018;-88
2022/05/09 09:50:34;;;;;;;6.93;2.10;;;17.10;76.60;;;;;;4986864;28;20021;-90
2022/05/09 09:53:01;;;;;;;4.35;1.50;;;17.10;76.00;;;;;;4987961;28;20076;-88
2022/05/09 09:55:33;;;;;;;3.80;1.70;;;17.00;75.10;;;;;;4987788;28;20053;-87
2022/05/09 09:58:20;;;;;;;5.85;1.70;;;16.90;74.80;;;;;;4987733;28;20026;-88
2022/05/09 10:00:46;;;;;;;4.97;1.48;;;17.00;74.80;;;;;;4998722;28;20499;-89
2022/05/09 10:03:29;;;;;;;2.50;1.15;;;17.00;74.70;;;;;;4986296;28;20077;-88
2022/05/09 10:05:56;;;;;;;4.47;1.92;;;17.00;73.20;;;;;;4981168;28;20073;-89
2022/05/09 10:08:39;;;;;;;3.95;1.17;;;16.90;71.80;;;;;;4986384;28;20061;-89
2022/05/09 10:11:08;;;;;;;3.00;1.20;;;16.80;71.90;;;;;;4986212;28;20041;-89
2022/05/09 10:13:37;;;;;;;8.80;1.75;;;16.90;72.40;;;;;;4986844;28;20054;-90
2022/05/09 10:16:26;;;;;;;3.55;1.92;;;17.00;72.70;;;;;;4982867;28;20030;-89
2022/05/09 10:18:52;;;;;;;4.88;1.70;;;17.00;72.90;;;;;;4983391;28;20384;-90
2022/05/09 10:24:49;;;;;;;7.10;2.83;;;17.30;73.90;;;;;;5001032;28;20443;-91
2022/05/09 10:27:22;;;;;;;6.38;2.08;;;17.30;73.40;;;;;;4985679;28;20029;-89
2022/05/09 10:29:51;;;;;;;5.60;2.40;;;17.20;73.80;;;;;;4992203;28;20074;-88
2022/05/09 10:32:23;;;;;;;5.57;2.38;;;17.20;74.50;;;;;;4975857;28;20030;-88
2022/05/09 10:34:56;;;;;;;9.48;2.47;;;17.20;75.00;;;;;;4973471;28;20043;-88
2022/05/09 10:37:40;;;;;;;7.57;2.80;;;17.20;75.50;;;;;;4973809;28;20023;-89
2022/05/09 10:40:26;;;;;;;5.10;2.92;;;17.40;75.60;;;;;;4958637;28;20075;-91
2022/05/09 10:43:24;;;;;;;10.90;3.15;;;17.50;75.20;;;;;;4973386;28;20035;-90
2022/05/09 10:45:52;;;;;;;7.30;3.55;;;17.50;75.80;;;;;;4973691;28;20027;-90
2022/05/09 10:48:53;;;;;;;10.77;2.92;;;17.60;75.70;;;;;;4973367;28;20532;-90
2022/05/09 10:51:23;;;;;;;;;;;17.70;76.10;;;;;;4973857;28;20026;-89
2022/05/09 10:54:02;;;;;;;10.13;4.05;;;17.70;75.40;;;;;;4974587;28;19997;-89
2022/05/09 10:56:33;;;;;;;7.40;2.90;;;17.70;75.40;;;;;;4973907;28;20030;-90
2022/05/09 10:59:27;;;;;;;6.32;3.00;;;17.70;75.50;;;;;;4992294;28;20035;-89
2022/05/09 11:02:12;;;;;;;11.48;3.50;;;17.70;75.60;;;;;;4990585;28;20061;-89
2022/05/09 11:04:38;;;;;;;7.93;3.45;;;17.70;75.70;;;;;;4995972;28;20085;-88
2022/05/09 11:07:18;;;;;;;8.70;3.53;;;17.70;75.90;;;;;;4996154;28;20023;-88
2022/05/09 11:09:53;;;;;;;;;;;17.60;75.70;;;;;;4997836;28;20027;-88
2022/05/09 11:12:45;;;;;;;6.18;3.47;;;17.70;76.30;;;;;;5004140;28;19910;-89
2022/05/09 11:15:33;;;;;;;10.00;3.63;;;17.80;75.90;;;;;;4995817;28;20502;-89
2022/05/09 11:18:23;;;;;;;7.75;3.20;;;17.80;75.90;;;;;;4995792;28;20030;-89
2022/05/09 11:21:26;;;;;;;11.57;3.47;;;17.90;76.30;;;;;;4995608;28;20022;-89
2022/05/09 11:24:29;;;;;;;11.60;3.58;;;18.00;76.40;;;;;;4995418;28;20054;-91
2022/05/09 11:27:21;;;;;;;8.63;3.08;;;18.00;76.30;;;;;;4995314;28;20031;-88
2022/05/09 11:30:19;;;;;;;8.07;3.53;;;18.10;75.90;;;;;;4975534;28;20186;-89
2022/05/09 11:32:46;;;;;;;10.68;4.13;;;18.20;75.80;;;;;;4989743;28;20034;-90
2022/05/09 11:35:28;;;;;;;9.02;3.90;;;18.30;75.50;;;;;;4981040;28;20068;-88
2022/05/09 11:38:16;;;;;;;9.55;4.20;;;18.50;75.30;;;;;;4980162;28;20033;-89
2022/05/09 11:41:06;;;;;;;10.57;3.85;;;18.70;74.90;;;;;;4979630;28;20163;-90
2022/05/09 11:43:43;;;;;;;8.18;4.45;;;18.80;73.90;;;;;;4981923;28;20031;-89
2022/05/09 11:46:15;;;;;;;8.65;3.60;;;18.80;73.70;;;;;;4982322;28;20388;-89
2022/05/09 11:48:59;;;;;;;11.20;4.65;;;18.70;74.10;;;;;;4992885;28;20011;-89
2022/05/09 11:51:56;;;;;;;9.07;3.85;;;18.70;74.10;;;;;;4995773;28;20026;-90
2022/05/09 11:54:29;;;;;;;9.02;4.25;;;18.50;74.20;;;;;;4987780;28;20030;-89
2022/05/09 11:56:59;;;;;;;9.45;4.07;;;18.50;74.60;;;;;;4979399;28;20481;-89
2022/05/09 11:59:28;;;;;;;14.98;4.90;;;18.40;75.40;;;;;;4979184;28;20065;-89
2022/05/09 12:02:07;;;;;;;12.57;4.97;;;18.40;75.50;;;;;;4979270;28;20137;-91
2022/05/09 12:04:46;;;;;;;9.88;4.10;;;18.20;75.30;;;;;;4979607;28;20038;-90
2022/05/09 12:07:21;;;;;;;11.52;4.13;;;18.20;75.80;;;;;;4980420;28;20081;-89
2022/05/09 12:09:53;;;;;;;10.32;4.57;;;18.20;76.50;;;;;;4980481;28;20034;-90
2022/05/09 12:12:37;;;;;;;10.50;4.38;;;18.20;76.70;;;;;;4982873;28;20042;-89
2022/05/09 12:15:24;;;;;;;11.63;4.60;;;18.10;76.60;;;;;;4999155;28;20042;-87
2022/05/09 12:18:00;;;;;;;13.23;4.63;;;18.10;76.70;;;;;;4973635;28;20066;-88
2022/05/09 12:20:29;;;;;;;11.48;4.50;;;17.90;76.70;;;;;;4991079;28;20022;-88
2022/05/09 12:22:56;;;;;;;10.65;4.25;;;17.80;76.80;;;;;;4976926;28;20035;-90
2022/05/09 12:25:34;;;;;;;15.70;4.65;;;17.70;77.50;;;;;;4970385;28;20034;-89
2022/05/09 12:28:05;;;;;;;9.57;4.35;;;17.60;78.20;;;;;;4963816;28;20121;-91
2022/05/09 12:30:42;;;;;;;13.00;4.30;;;17.60;78.50;;;;;;4961530;28;20495;-89
2022/05/09 12:33:14;;;;;;;12.00;5.13;;;17.70;78.70;;;;;;4961706;28;20114;-90
2022/05/09 12:35:42;;;;;;;13.13;5.68;;;17.60;78.70;;;;;;4980499;28;20428;-90
2022/05/09 12:38:11;;;;;;;9.55;4.65;;;17.60;78.80;;;;;;4979821;28;20041;-89
2022/05/09 12:40:37;;;;;;;12.02;5.30;;;17.50;78.70;;;;;;4978809;28;20053;-89
2022/05/09 12:43:04;;;;;;;10.55;4.78;;;17.40;78.70;;;;;;4978679;28;20443;-90
2022/05/09 12:45:30;;;;;;;11.32;4.72;;;17.40;79.10;;;;;;4978195;28;20030;-90
2022/05/09 12:47:57;;;;;;;10.30;4.60;;;17.50;79.40;;;;;;4978104;28;20580;-89
2022/05/09 12:50:34;;;;;;;8.35;4.85;;;17.50;79.70;;;;;;4979804;28;20142;-90
2022/05/09 12:53:09;;;;;;;9.88;4.20;;;17.60;79.80;;;;;;4979487;28;20514;-90
2022/05/09 12:55:52;;;;;;;11.10;4.65;;;17.70;79.90;;;;;;4979500;28;20115;-89
2022/05/09 12:58:30;;;;;;;10.70;4.57;;;17.70;79.50;;;;;;4979426;28;20035;-90
2022/05/09 13:01:24;;;;;;;14.55;4.35;;;17.80;79.70;;;;;;4979881;28;20277;-90
2022/05/09 13:03:53;;;;;;;9.02;4.55;;;17.90;79.70;;;;;;4986815;28;20050;-88
2022/05/09 13:06:23;;;;;;;10.15;4.70;;;17.90;79.70;;;;;;4979997;28;20053;-91
2022/05/09 13:08:49;;;;;;;9.75;4.68;;;18.00;79.90;;;;;;4978857;28;20057;-89
2022/05/09 13:11:20;;;;;;;10.73;5.15;;;18.20;80.10;;;;;;4978650;28;20065;-90
2022/05/09 13:14:07;;;;;;;9.10;5.00;;;18.40;79.90;;;;;;4978153;28;20450;-90